• Join FlightAware (Why Join?)
  • Login
  • US Flag 
11:37AM EDT


 

Airport Tracker/Info


-or-


 

Live Flight TrackerFlight Track Log ✈ EGF4211 ✈ 22-Apr-2013 ✈ KORD - KFAR

Flight Track Log - Related Links

Times and Time Zones

All times are in EDT time to prevent confusion due to time zone crossing. See the EGF4211 flight status page for this flight to view local times or setup timezone preferences in your user account.

Time Position Orientation Groundspeed Altitude Reporting Facility
EDT Latitude Longitude Course Direction KTS MPH feet Rate Location/Type
04:39PM 41.9667 -87.8667 346° North 159 183 2,000  Level Chicago TRACON
04:40PM 41.9833 -87.8000 71° East 222 255 4,200 2,040 Climbing Chicago TRACON
04:41PM 42.2513 -87.9920 350° North  Level FlightAware Approximate
04:42PM 42.3478 -88.0161 350° North  Level FlightAware Approximate
04:42PM 42.1058 -87.7431 19° North 275 316 8,600  Level Chicago Center
04:43PM 42.4413 -88.0549 352° North  Level FlightAware Approximate
04:43PM 42.1889 -87.7458 359° North 296 341 10,800  Level Chicago Center
04:44PM 42.5342 -88.0892 346° North  Level FlightAware Approximate
04:44PM 42.2744 -87.7444 North 309 356 12,800  Level Chicago Center
04:45PM 42.3744 -87.7575 354° North 342 394 13,800 1,200 Climbing Chicago Center
04:46PM 42.4786 -87.8311 332° Northwest 365 420 15,400 1,500 Climbing Chicago Center
04:47PM 42.5678 -87.8972 331° Northwest 366 421 16,900 1,380 Climbing Chicago Center
04:48PM 42.6597 -87.9600 333° Northwest 369 425 18,300 1,380 Climbing Chicago Center
04:49PM 42.7508 -88.0239 333° Northwest 369 425 19,800 1,440 Climbing Chicago Center
04:50PM 42.8431 -88.0897 332° Northwest 371 427 21,300 1,560 Climbing Chicago Center
04:51PM 42.9517 -88.1672 332° Northwest 376 433 23,100 1,560 Climbing Chicago Center
04:52PM 43.0447 -88.2333 333° Northwest 376 433 24,600 1,500 Climbing Chicago Center
04:53PM 43.1286 -88.3142 325° Northwest 381 438 26,200 1,500 Climbing Chicago Center
04:55PM 43.1828 -88.4300 303° West 358 412 27,700 1,500 Climbing Chicago Center
04:56PM 43.2308 -88.5461 300° West 348 400 29,300 1,500 Climbing Chicago Center
04:57PM 43.2792 -88.6611 300° West 345 397 30,800 1,440 Climbing Chicago Center
04:58PM 43.3278 -88.7731 301° West 338 389 32,300 1,320 Climbing Chicago Center
04:59PM 43.3756 -88.8842 301° West 336 387 33,600 780 Climbing Chicago Center
05:00PM 43.4319 -89.0164 300° West 340 391 34,000 480 Climbing Chicago Center
05:01PM 43.4825 -89.1394 300° West 364 419 34,600 720 Climbing Chicago Center
05:02PM 43.5342 -89.2611 300° West 366 421 35,500 660 Climbing Chicago Center
05:03PM 43.5839 -89.3789 300° West 359 413 36,000 240 Climbing Chicago Center
05:04PM 43.6342 -89.5008 300° West 363 418 36,000  Level Chicago Center
05:04PM 43.6675 -89.5819 300° West 363 418 36,000  Level Minneapolis Center
05:05PM 43.7175 -89.7008 300° West 361 415 36,000  Level Minneapolis Center
05:06PM 43.7658 -89.8181 300° West 353 406 36,000  Level Minneapolis Center
05:07PM 43.8147 -89.9325 301° West 348 400 36,000  Level Minneapolis Center
05:09PM 43.8608 -90.0464 299° West 340 391 36,000  Level Minneapolis Center
05:10PM 43.9069 -90.1606 299° West 339 390 36,000  Level Minneapolis Center
05:11PM 43.9608 -90.2939 299° West 339 390 36,000  Level Minneapolis Center
05:12PM 44.0072 -90.4089 299° West 341 392 36,000  Level Minneapolis Center
05:13PM 44.0539 -90.5239 299° West 342 394 36,000  Level Minneapolis Center
05:14PM 44.1003 -90.6367 300° West 342 394 36,000  Level Minneapolis Center
05:15PM 44.1458 -90.7506 299° West 341 392 36,000  Level Minneapolis Center
05:16PM 44.1906 -90.8658 298° West 341 392 36,000  Level Minneapolis Center
05:17PM 44.2467 -91.0039 300° West 343 395 36,000  Level Minneapolis Center
05:18PM 44.2928 -91.1197 299° West 345 397 36,000  Level Minneapolis Center
05:19PM 44.3358 -91.2314 298° West 344 396 36,000  Level Minneapolis Center
05:20PM 44.3817 -91.3492 299° West 346 398 36,000 -60 Level Minneapolis Center
05:21PM 44.4375 -91.4894 299° West 346 398 35,900 -540 Descending Minneapolis Center
05:22PM 44.4828 -91.6061 299° West 343 395 35,000 -900 Descending Minneapolis Center
05:23PM 44.5272 -91.7250 298° West 344 396 34,100 -540 Descending Minneapolis Center
05:24PM 44.5753 -91.8492 299° West 358 412 34,000 -60 Descending Minneapolis Center
05:25PM 44.6236 -91.9728 299° West 362 417 34,000  Level Minneapolis Center
05:26PM 44.6711 -92.0994 298° West 366 421 34,000  Level Minneapolis Center
05:27PM 44.7269 -92.2464 298° West 362 417 34,000  Level Minneapolis Center
05:28PM 44.7736 -92.3708 298° West 361 415 34,000  Level Minneapolis Center
05:29PM 44.8206 -92.4950 298° West 362 417 34,000  Level Minneapolis Center
05:30PM 44.8669 -92.6186 298° West 360 414 34,000  Level Minneapolis Center
05:31PM 44.9133 -92.7419 298° West 359 413 34,000  Level Minneapolis Center
05:32PM 44.9597 -92.8650 298° West 360 414 34,000 -300 Level Minneapolis Center
05:33PM 45.0153 -93.0147 298° West 362 417 33,500 -780 Descending Minneapolis Center
05:34PM 45.0617 -93.1419 297° West 368 423 32,400 -780 Descending Minneapolis Center
05:35PM 45.1097 -93.2733 297° West 379 436 32,000 -240 Descending Minneapolis Center
05:36PM 45.1611 -93.4047 299° West 384 442 32,000  Level Minneapolis Center
05:37PM 45.2269 -93.5256 308° West 387 445 32,000  Level Minneapolis Center
05:38PM 45.3086 -93.6728 308° West 395 455 32,000  Level Minneapolis Center
05:39PM 45.3753 -93.7969 307° West 397 457 32,000  Level Minneapolis Center
05:40PM 45.4439 -93.9233 308° West 403 464 32,000  Level Minneapolis Center
05:41PM 45.5119 -94.0489 308° West 404 465 32,000  Level Minneapolis Center
05:42PM 45.5794 -94.1756 307° West 403 464 32,000  Level Minneapolis Center
05:44PM 45.6461 -94.3019 307° West 399 459 32,000  Level Minneapolis Center
05:45PM 45.7253 -94.4483 308° West 393 452 32,000  Level Minneapolis Center
05:46PM 45.7892 -94.5733 306° West 391 450 32,000  Level Minneapolis Center
05:47PM 45.8536 -94.6961 307° West 388 447 32,000  Level Minneapolis Center
05:48PM 45.9183 -94.8203 307° West 390 449 32,000  Level Minneapolis Center
05:49PM 45.9831 -94.9469 306° West 393 452 32,000  Level Minneapolis Center
05:50PM 46.0558 -95.0861 307° West 395 455 32,000 -300 Level Minneapolis Center
05:51PM 46.1214 -95.2136 307° West 397 457 31,500 -1,380 Descending Minneapolis Center
05:52PM 46.1939 -95.3575 306° West 407 468 29,200 -2,460 Descending Minneapolis Center
05:53PM 46.2581 -95.4828 307° West 422 486 26,500 -2,820 Descending Minneapolis Center
05:54PM 46.3286 -95.6219 306° West 430 495 23,500 -2,940 Descending Minneapolis Center
05:55PM 46.3983 -95.7586 307° West 424 488 20,500 -3,000 Descending Minneapolis Center
05:56PM 46.4711 -95.9067 306° West 391 450 17,400 -3,120 Descending Minneapolis Center
05:57PM 46.5361 -96.0336 307° West 377 434 14,200 -3,060 Descending Minneapolis Center
05:58PM 46.5950 -96.1539 305° West 352 405 11,200 -1,980 Descending Minneapolis Center
05:59PM 46.6403 -96.2533 304° West 305 351 10,200 -1,440 Descending Minneapolis Center
06:00PM 46.6703 -96.3542 293° West 261 300 8,300 -1,800 Descending Minneapolis Center
06:01PM 46.6989 -96.4561 292° West 259 298 6,600 -1,140 Descending Minneapolis Center
06:02PM 46.7106 -96.5558 280° West 239 275 6,000 -300 Descending Minneapolis Center
06:03PM 46.7139 -96.6533 273° West 250 288 6,000  Level Minneapolis Center